Thunder radar more information blitzortung!


Radar de pluja more information rain snow radar


Visita la nostra xarxa de llocs de meteo:

Template documentation
and downloads

And another site



Extreme low temperature From: 13-12-2017 09:00 Until: 09:59 warning for: Extreme low temperature Level: Yellow info button

Pagina Historial Weather Underground text

Diari Resum Octubre 15, 2017 Unitats:  Imperial    Mètric   Tant
« Previous Dia
SegĂźent Dia »
Diari Setmana Mensual Anual Personalitzada
  Maxima: Minima: Media:
Temperatura: 79.5 °F 58.3 °F 66.7 °F
Punt de rosada: 64.2 °F 55.4 °F 58.6 °F
Humitat: 92 % 52 % 76 %
Wind Speed: 9.2 mph 0 mph 2.1 mph
RĂ fegues de vent: 9.2 mph - -
Vent:- - SSE
Pression baro: 30.4 in 30.3 in -
Precipitacions: 0 in    
Historical Graphs
 
 
Dades de taula per Octubre 15, 2017
Temps Temperatura Punt de rosada Pression baro Vent Wind Speed RĂ fegues de vent Humitat Rainfall Rate (Hourly)
00:00 63.9 °F 58.3 °F 30.4 in Calm     82 % 0 in
00:05 63.7 °F 58.5 °F 30.4 in Calm     83 % 0 in
00:10 63.5 °F 58.3 °F 30.4 in Calm     83 % 0 in
00:15 63.7 °F 58.5 °F 30.4 in Calm     83 % 0 in
00:20 63.5 °F 58.3 °F 30.4 in Calm     83 % 0 in
00:25 63.3 °F 58.1 °F 30.4 in Calm     83 % 0 in
00:30 63.3 °F 58.5 °F 30.4 in Calm     84 % 0 in
00:31 63.3 °F 58.5 °F 30.4 in Calm     84 % 0 in
00:36 63.3 °F 58.5 °F 30.4 in Calm     84 % 0 in
00:41 63.1 °F 58.3 °F 30.4 in Calm     84 % 0 in
00:46 63.1 °F 58.3 °F 30.4 in Calm     84 % 0 in
00:51 63 °F 57.9 °F 30.4 in Calm     84 % 0 in
00:56 63 °F 58.5 °F 30.4 in Calm     85 % 0 in
01:01 63 °F 58.5 °F 30.4 in Calm     85 % 0 in
01:06 62.8 °F 58.3 °F 30.4 in Calm     85 % 0 in
01:11 62.8 °F 58.3 °F 30.4 in Calm     85 % 0 in
01:12 62.6 °F 57.9 °F 30.4 in Calm     85 % 0 in
01:17 62.6 °F 57.9 °F 30.4 in Calm     85 % 0 in
01:22 62.4 °F 57.7 °F 30.4 in Calm     85 % 0 in
01:27 62.1 °F 57.6 °F 30.4 in North 1.4 mph 1.4 mph 85 % 0 in
01:32 62.1 °F 57.6 °F 30.4 in WNW 2.3 mph 2.3 mph 85 % 0 in
01:37 62.2 °F 57.9 °F 30.4 in WNW 1.2 mph   86 % 0 in
01:42 62.1 °F 57.7 °F 30.4 in WNW 1.2 mph 1.2 mph 86 % 0 in
01:47 62.1 °F 57.7 °F 30.4 in WNW 1.2 mph 1.2 mph 86 % 0 in
01:52 62.1 °F 57.7 °F 30.4 in WNW 1.2 mph 1.2 mph 86 % 0 in
01:57 62.1 °F 58.1 °F 30.3 in Calm     87 % 0 in
02:02 61.9 °F 57.9 °F 30.3 in Calm     87 % 0 in
02:07 61.9 °F 57.9 °F 30.3 in Calm     87 % 0 in
02:12 61.7 °F 57.7 °F 30.4 in Calm     87 % 0 in
02:17 61.7 °F 57.7 °F 30.4 in Calm     87 % 0 in
02:22 61.5 °F 57.6 °F 30.4 in North 1.4 mph 1.4 mph 87 % 0 in
02:27 61.3 °F 57.4 °F 30.4 in NNE 2.3 mph 2.3 mph 87 % 0 in
02:32 61.3 °F 57.4 °F 30.4 in Calm     87 % 0 in
02:37 61.3 °F 57.7 °F 30.4 in Calm     88 % 0 in
02:42 61.2 °F 57.6 °F 30.4 in Calm     88 % 0 in
02:47 61.2 °F 57.6 °F 30.4 in Calm     88 % 0 in
02:52 60.6 °F 56.7 °F 30.4 in Calm     87 % 0 in
02:57 60.4 °F 56.7 °F 30.4 in Calm     87 % 0 in
03:02 60.3 °F 56.7 °F 30.4 in Calm     88 % 0 in
03:07 60.3 °F 56.7 °F 30.4 in Calm     88 % 0 in
03:12 60.1 °F 56.5 °F 30.4 in Calm     88 % 0 in
03:17 60.1 °F 56.5 °F 30.4 in Calm     88 % 0 in
03:22 59.9 °F 56.3 °F 30.4 in Calm     88 % 0 in
03:27 59.9 °F 56.3 °F 30.4 in Calm     88 % 0 in
03:32 59.7 °F 56.1 °F 30.4 in Calm     88 % 0 in
03:37 59.7 °F 56.1 °F 30.4 in Calm     88 % 0 in
03:42 59.7 °F 56.5 °F 30.4 in Calm     89 % 0 in
03:47 59.7 °F 56.5 °F 30.4 in Calm     89 % 0 in
03:52 59.7 °F 56.5 °F 30.4 in Calm     89 % 0 in
03:57 59.7 °F 56.5 °F 30.4 in Calm     89 % 0 in
04:02 59.9 °F 56.7 °F 30.4 in Calm     89 % 0 in
04:07 59.9 °F 56.7 °F 30.4 in Calm     89 % 0 in
04:12 59.9 °F 56.7 °F 30.4 in ENE 1.2 mph 1.2 mph 89 % 0 in
04:17 59.9 °F 56.7 °F 30.4 in NNE 2.3 mph 2.3 mph 89 % 0 in
04:22 60.1 °F 56.8 °F 30.4 in ENE 1.2 mph 1.2 mph 89 % 0 in
04:27 60.1 °F 56.5 °F 30.3 in ENE 2.3 mph 2.3 mph 88 % 0 in
04:32 60.1 °F 56.5 °F 30.3 in North 1.2 mph 1.2 mph 88 % 0 in
04:37 60.3 °F 56.7 °F 30.3 in NNE 2.3 mph 2.3 mph 88 % 0 in
04:42 60.3 °F 56.7 °F 30.4 in NNE 3.5 mph 3.5 mph 88 % 0 in
04:47 60.3 °F 56.7 °F 30.4 in Calm     88 % 0 in
04:52 60.1 °F 56.5 °F 30.4 in Calm     88 % 0 in
04:57 60.1 °F 56.5 °F 30.3 in NNW 1.2 mph 1.2 mph 88 % 0 in
05:02 60.1 °F 56.5 °F 30.3 in Calm     88 % 0 in
05:07 60.1 °F 56.5 °F 30.3 in Calm     88 % 0 in
05:12 59.9 °F 56.3 °F 30.3 in West 1.2 mph 1.2 mph 88 % 0 in
05:17 59.9 °F 56.3 °F 30.3 in West 1.2 mph 1.2 mph 88 % 0 in
05:22 59.9 °F 56.3 °F 30.3 in Calm     88 % 0 in
05:27 59.9 °F 56.3 °F 30.4 in Calm     88 % 0 in
05:32 59.9 °F 56.3 °F 30.4 in Calm     88 % 0 in
05:37 59.9 °F 56.3 °F 30.4 in Calm     88 % 0 in
05:42 59.9 °F 56.3 °F 30.4 in SW 2.3 mph 2.3 mph 88 % 0 in
05:47 59.9 °F 56.3 °F 30.4 in Calm     88 % 0 in
05:52 59.7 °F 56.5 °F 30.4 in Calm     89 % 0 in
05:57 59.7 °F 56.1 °F 30.4 in Calm     88 % 0 in
06:02 59.5 °F 56.3 °F 30.4 in Calm     89 % 0 in
06:07 59.5 °F 56.3 °F 30.4 in Calm     89 % 0 in
06:12 59.5 °F 56.3 °F 30.4 in Calm     89 % 0 in
06:17 59.5 °F 56.3 °F 30.4 in Calm     89 % 0 in
06:22 59.5 °F 56.3 °F 30.4 in Calm     89 % 0 in
06:27 59.5 °F 56.3 °F 30.4 in Calm     89 % 0 in
06:32 59.5 °F 56.3 °F 30.4 in Calm     89 % 0 in
06:37 59.5 °F 56.3 °F 30.4 in SSE 1.4 mph   89 % 0 in
06:42 59 °F 55.8 °F 30.4 in South 1.2 mph   89 % 0 in
06:47 59 °F 55.8 °F 30.4 in Calm     89 % 0 in
06:52 58.8 °F 55.6 °F 30.4 in South 1.2 mph 1.2 mph 89 % 0 in
06:57 59 °F 55.8 °F 30.4 in Calm     89 % 0 in
07:02 59 °F 55.8 °F 30.4 in Calm     89 % 0 in
07:03 59 °F 55.8 °F 30.4 in Calm     89 % 0 in
07:08 58.8 °F 55.6 °F 30.4 in South 1.4 mph 1.4 mph 89 % 0 in
07:13 59 °F 55.8 °F 30.4 in South 2.3 mph 2.3 mph 89 % 0 in
07:18 58.8 °F 55.6 °F 30.4 in SSW 2.3 mph 2.3 mph 89 % 0 in
07:23 58.8 °F 55.6 °F 30.4 in SW 2.3 mph 2.3 mph 89 % 0 in
07:28 59 °F 56.1 °F 30.4 in WSW 2.3 mph   90 % 0 in
07:33 59 °F 56.1 °F 30.4 in Calm     90 % 0 in
07:38 59 °F 56.1 °F 30.4 in WSW 1.2 mph   90 % 0 in
07:40 59 °F 56.1 °F 30.4 in WSW 1.2 mph   90 % 0 in
07:45 59 °F 56.1 °F 30.4 in Calm     90 % 0 in
07:50 58.8 °F 56.1 °F 30.4 in Calm     91 % 0 in
07:55 58.6 °F 55.8 °F 30.4 in Calm     90 % 0 in
08:00 58.5 °F 55.6 °F 30.3 in Calm     90 % 0 in
08:05 58.5 °F 55.6 °F 30.3 in Calm     90 % 0 in
08:10 58.5 °F 55.6 °F 30.3 in Calm     90 % 0 in
08:15 58.3 °F 55.4 °F 30.4 in Calm     90 % 0 in
08:20 58.3 °F 55.8 °F 30.4 in Calm     91 % 0 in
08:25 58.3 °F 55.8 °F 30.4 in Calm     91 % 0 in
08:30 58.5 °F 55.8 °F 30.4 in Calm     91 % 0 in
08:35 58.8 °F 56.1 °F 30.4 in Calm     91 % 0 in
08:40 59.2 °F 56.8 °F 30.4 in Calm     92 % 0 in
08:45 59.4 °F 56.7 °F 30.4 in NNE 2.3 mph 2.3 mph 91 % 0 in
08:50 59.7 °F 57 °F 30.4 in NW 2.6 mph 2.6 mph 91 % 0 in
08:55 60.4 °F 57.7 °F 30.4 in NNW 1.2 mph 1.2 mph 91 % 0 in
09:00 61 °F 57.9 °F 30.3 in NNW 2.3 mph 2.3 mph 90 % 0 in
09:05 61 °F 57.9 °F 30.3 in South 2.3 mph 2.3 mph 90 % 0 in
09:10 61 °F 57.9 °F 30.3 in Calm     90 % 0 in
09:15 61.3 °F 58.1 °F 30.4 in NE 2.3 mph   89 % 0 in
09:20 61.5 °F 58.3 °F 30.4 in North 2.6 mph 2.6 mph 89 % 0 in
09:25 61.5 °F 57.9 °F 30.4 in ENE 3.1 mph 3.1 mph 88 % 0 in
09:30 61.5 °F 57.9 °F 30.4 in WSW 1.2 mph   88 % 0 in
09:35 62.1 °F 58.5 °F 30.4 in West 1.2 mph 1.2 mph 88 % 0 in
09:40 62.6 °F 58.6 °F 30.4 in WNW 1.2 mph 1.2 mph 87 % 0 in
09:45 63.7 °F 59.7 °F 30.4 in NW 2.3 mph 2.3 mph 87 % 0 in
09:50 64.4 °F 59.7 °F 30.4 in NW 2.4 mph 2.4 mph 85 % 0 in
09:55 65.1 °F 60.3 °F 30.4 in NNE 3.5 mph 3.5 mph 84 % 0 in
10:00 65.7 °F 60.4 °F 30.4 in ENE 1.2 mph 1.2 mph 83 % 0 in
10:05 66.2 °F 60.4 °F 30.4 in NE 2.6 mph 2.6 mph 82 % 0 in
10:10 66.4 °F 60.4 °F 30.4 in NNE 4.6 mph 4.6 mph 81 % 0 in
10:15 66.2 °F 59.7 °F 30.4 in NNE 3.5 mph 3.5 mph 80 % 0 in
10:20 66.4 °F 60.1 °F 30.4 in ENE 6.9 mph 6.9 mph 80 % 0 in
10:25 66.7 °F 60.1 °F 30.4 in NE 4.3 mph 4.3 mph 79 % 0 in
10:30 67.1 °F 60.4 °F 30.4 in ENE 4.6 mph 4.6 mph 79 % 0 in
10:33 67.3 °F 60.3 °F 30.4 in NE 5.8 mph 5.8 mph 78 % 0 in
10:38 67.3 °F 60.3 °F 30.4 in NE 3.5 mph 3.5 mph 78 % 0 in
10:43 67.8 °F 60.3 °F 30.4 in NE 3.8 mph 3.8 mph 77 % 0 in
10:48 68 °F 60.3 °F 30.4 in ENE 4.6 mph 4.6 mph 76 % 0 in
10:53 68.7 °F 61.2 °F 30.4 in ENE 4.6 mph 4.6 mph 77 % 0 in
10:58 68.9 °F 61 °F 30.4 in NE 4.6 mph 4.6 mph 76 % 0 in
11:03 68.7 °F 60.4 °F 30.4 in ENE 3.6 mph 3.6 mph 75 % 0 in
11:08 67.8 °F 60.1 °F 30.4 in NE 3.5 mph 3.5 mph 76 % 0 in
11:13 68 °F 60.3 °F 30.4 in ENE 3.5 mph 3.5 mph 76 % 0 in
11:18 67.8 °F 60.1 °F 30.4 in NNE 2.4 mph 2.4 mph 76 % 0 in
11:23 67.8 °F 60.1 °F 30.4 in NE 2.3 mph 2.3 mph 76 % 0 in
11:28 68 °F 59.7 °F 30.4 in NNE 2.3 mph 2.3 mph 75 % 0 in
11:33 67.6 °F 59.7 °F 30.4 in NNE 3.5 mph 3.5 mph 76 % 0 in
11:38 67.6 °F 59.7 °F 30.4 in ENE 2.3 mph 2.3 mph 76 % 0 in
11:43 67.6 °F 59.7 °F 30.4 in ENE 2.4 mph 2.4 mph 76 % 0 in
11:48 67.6 °F 59.7 °F 30.4 in NE 2.3 mph 2.3 mph 76 % 0 in
11:53 67.6 °F 59.7 °F 30.4 in NNE 2.3 mph 2.3 mph 76 % 0 in
11:58 67.8 °F 60.1 °F 30.4 in NE 2.3 mph 2.3 mph 76 % 0 in
12:03 68 °F 59.7 °F 30.4 in NNE 1.2 mph 1.2 mph 75 % 0 in
12:08 68 °F 59.7 °F 30.4 in North 2.3 mph 2.3 mph 75 % 0 in
12:13 67.8 °F 59.5 °F 30.4 in NE 2.3 mph 2.3 mph 75 % 0 in
12:18 68 °F 59.7 °F 30.4 in NNE 1.2 mph 1.2 mph 75 % 0 in
12:23 68 °F 59.4 °F 30.4 in Calm     74 % 0 in
12:28 68 °F 59.4 °F 30.4 in NE 1.2 mph 1.2 mph 74 % 0 in
12:33 68 °F 59.4 °F 30.4 in NE 2.6 mph 2.6 mph 74 % 0 in
12:38 67.8 °F 59.5 °F 30.4 in ENE 3.5 mph 3.5 mph 75 % 0 in
12:43 68 °F 59.4 °F 30.4 in ENE 2.3 mph 2.3 mph 74 % 0 in
12:48 69.3 °F 60.6 °F 30.4 in East 2.3 mph 2.3 mph 74 % 0 in
12:53 70 °F 61 °F 30.4 in NNE 2.3 mph 2.3 mph 73 % 0 in
12:58 70.9 °F 61.9 °F 30.4 in ENE 2.3 mph 2.3 mph 73 % 0 in
13:03 71.6 °F 61.7 °F 30.4 in NE 4.6 mph 4.6 mph 71 % 0 in
13:08 72 °F 62.1 °F 30.4 in NW 3.5 mph 3.5 mph 71 % 0 in
13:13 72.5 °F 62.6 °F 30.4 in NNE 3.5 mph 3.5 mph 71 % 0 in
13:18 72.3 °F 62.1 °F 30.4 in ENE 3.5 mph 3.5 mph 70 % 0 in
13:23 72.5 °F 62.2 °F 30.4 in SSE 2.3 mph 2.3 mph 70 % 0 in
13:28 73 °F 62.8 °F 30.4 in WSW 2.4 mph 2.4 mph 70 % 0 in
13:33 73.6 °F 63.1 °F 30.4 in NNW 2.6 mph 2.6 mph 70 % 0 in
13:38 74.7 °F 63.9 °F 30.4 in SW 4.6 mph 4.6 mph 69 % 0 in
13:43 75.6 °F 64.2 °F 30.4 in WSW 6.9 mph 6.9 mph 68 % 0 in
13:48 74.7 °F 62.4 °F 30.4 in ESE 2.3 mph 2.3 mph 66 % 0 in
13:53 74.8 °F 63.1 °F 30.4 in SSW 2.3 mph 2.3 mph 67 % 0 in
13:58 75.9 °F 63.3 °F 30.4 in SSE 3.5 mph 3.5 mph 65 % 0 in
14:03 76.1 °F 63.5 °F 30.4 in SW 3.5 mph 3.5 mph 65 % 0 in
14:08 76.8 °F 63.7 °F 30.4 in West 2.9 mph 2.9 mph 64 % 0 in
14:13 76.5 °F 62.4 °F 30.3 in West 2.6 mph 2.6 mph 62 % 0 in
14:18 76.1 °F 62.6 °F 30.3 in SSW 4.6 mph 4.6 mph 63 % 0 in
14:23 75.6 °F 61.2 °F 30.3 in SSE 4.6 mph 4.6 mph 61 % 0 in
14:28 76.1 °F 61.7 °F 30.3 in SSW 5.8 mph 5.8 mph 61 % 0 in
14:33 77 °F 61.2 °F 30.3 in SW 5.8 mph 5.8 mph 58 % 0 in
14:38 77.7 °F 61.9 °F 30.3 in SW 4 mph 4 mph 58 % 0 in
14:39 77.9 °F 62.4 °F 30.3 in SSW 4.6 mph 4.6 mph 59 % 0 in
14:44 77 °F 61.2 °F 30.3 in SSW 4.6 mph 4.6 mph 58 % 0 in
14:49 76.8 °F 61.3 °F 30.3 in South 3.5 mph 3.5 mph 59 % 0 in
14:54 77 °F 60.1 °F 30.3 in ESE 2.4 mph 2.4 mph 56 % 0 in
14:59 76.8 °F 60.4 °F 30.3 in SW 2.3 mph 2.3 mph 57 % 0 in
15:04 77 °F 59.5 °F 30.3 in SE 4.6 mph 4.6 mph 55 % 0 in
15:09 77.9 °F 61 °F 30.3 in West 3.5 mph 3.5 mph 56 % 0 in
15:14 77.4 °F 59.4 °F 30.3 in ESE 5.8 mph 5.8 mph 54 % 0 in
15:19 77.9 °F 61 °F 30.3 in North 4.6 mph 4.6 mph 56 % 0 in
15:24 77.7 °F 59.7 °F 30.3 in ENE 5.8 mph 5.8 mph 54 % 0 in
15:29 77 °F 59.2 °F 30.3 in SSE 4.6 mph 4.6 mph 54 % 0 in
15:30 77.2 °F 59.2 °F 30.3 in SSE 5.8 mph 5.8 mph 54 % 0 in
15:35 77.9 °F 60.4 °F 30.3 in SW 1.4 mph 1.4 mph 55 % 0 in
15:40 77.7 °F 59.2 °F 30.3 in WSW 4.6 mph 4.6 mph 53 % 0 in
15:45 79 °F 61 °F 30.3 in ESE 2.3 mph 2.3 mph 54 % 0 in
15:50 78.4 °F 59.4 °F 30.3 in ESE 4 mph 4 mph 52 % 0 in
15:55 78.8 °F 60.3 °F 30.3 in NE 4.6 mph 4.6 mph 53 % 0 in
16:00 77.7 °F 59.7 °F 30.3 in SSE 5.8 mph 5.8 mph 54 % 0 in
16:05 77.2 °F 60.3 °F 30.3 in ENE 3.8 mph 4 mph 56 % 0 in
16:10 77.7 °F 60.8 °F 30.3 in WSW 5.8 mph 5.8 mph 56 % 0 in
16:15 78.8 °F 60.6 °F 30.3 in ESE 4.6 mph 4.6 mph 54 % 0 in
16:20 79.2 °F 60.6 °F 30.3 in East 2.3 mph 2.3 mph 53 % 0 in
16:25 78.4 °F 61 °F 30.3 in SSW 2.3 mph 2.3 mph 55 % 0 in
16:30 78.3 °F 61.9 °F 30.3 in West 5.4 mph 5.4 mph 57 % 0 in
16:35 78.8 °F 60.3 °F 30.3 in SE 4 mph 4 mph 53 % 0 in
16:40 77.7 °F 59.2 °F 30.3 in SW 3.6 mph 3.6 mph 53 % 0 in
16:45 78.3 °F 60.3 °F 30.3 in WSW 5.8 mph 5.8 mph 54 % 0 in
16:50 78.4 °F 59.9 °F 30.3 in ESE 2.4 mph 2.4 mph 53 % 0 in
16:55 78.1 °F 60.1 °F 30.3 in West 4.6 mph 4.6 mph 54 % 0 in
17:00 78.6 °F 60.1 °F 30.3 in SW 3.5 mph 3.5 mph 53 % 0 in
17:05 79 °F 60.4 °F 30.3 in ESE 4.6 mph 4.6 mph 53 % 0 in
17:10 79.5 °F 61 °F 30.3 in SW 2.4 mph 2.4 mph 53 % 0 in
17:15 79.5 °F 61 °F 30.3 in SW 4.6 mph 4.6 mph 53 % 0 in
17:20 79.3 °F 60.6 °F 30.3 in SSW 3.5 mph 3.5 mph 53 % 0 in
17:25 78.1 °F 59 °F 30.3 in SSW 6.9 mph 6.9 mph 52 % 0 in
17:30 78.1 °F 59 °F 30.3 in SW 4.6 mph 4.6 mph 52 % 0 in
17:35 77.5 °F 59.2 °F 30.3 in WSW 4.6 mph 4.6 mph 53 % 0 in
17:40 77.2 °F 58.6 °F 30.3 in SSW 8.1 mph 8.1 mph 53 % 0 in
17:45 76.8 °F 58.8 °F 30.3 in WSW 5.8 mph 5.8 mph 54 % 0 in
17:46 76.8 °F 58.8 °F 30.3 in WSW 5.8 mph 5.8 mph 54 % 0 in
17:51 77 °F 58.6 °F 30.3 in SW 3.5 mph 3.5 mph 53 % 0 in
17:56 76.8 °F 58.8 °F 30.3 in SSW 5.8 mph 5.8 mph 54 % 0 in
18:01 76.6 °F 58.6 °F 30.3 in WSW 4.7 mph 4.7 mph 54 % 0 in
18:06 76.1 °F 58.8 °F 30.3 in SSW 4.6 mph 4.6 mph 55 % 0 in
18:11 75.9 °F 58.6 °F 30.3 in SW 8.1 mph 8.1 mph 55 % 0 in
18:16 75.4 °F 58.1 °F 30.3 in SSW 8.1 mph 8.1 mph 55 % 0 in
18:21 74.8 °F 58.6 °F 30.3 in SW 5.8 mph 5.8 mph 57 % 0 in
18:26 74.7 °F 58.5 °F 30.3 in SSW 3.5 mph 3.5 mph 57 % 0 in
18:31 74.5 °F 58.3 °F 30.3 in SSW 4.6 mph 4.6 mph 57 % 0 in
18:36 74.1 °F 58.5 °F 30.3 in SW 9.2 mph 9.2 mph 58 % 0 in
18:41 73.6 °F 58.5 °F 30.3 in West 3.5 mph 3.6 mph 59 % 0 in
18:46 73 °F 57.9 °F 30.3 in WSW 8.1 mph 8.1 mph 59 % 0 in
18:51 72.7 °F 57.9 °F 30.3 in SSW 5.8 mph 5.8 mph 60 % 0 in
18:56 72.1 °F 57.9 °F 30.3 in SW 5.8 mph 5.8 mph 61 % 0 in
19:01 71.6 °F 57.9 °F 30.3 in SW 3.5 mph 3.5 mph 62 % 0 in
19:06 71.4 °F 58.3 °F 30.3 in SW 4.6 mph 4.6 mph 63 % 0 in
19:09 71.2 °F 57.9 °F 30.3 in SW 3.5 mph 3.5 mph 63 % 0 in
19:14 70.9 °F 58.1 °F 30.3 in SW 4.6 mph 4.6 mph 64 % 0 in
19:19 70.5 °F 57.7 °F 30.3 in WSW 3.5 mph 3.5 mph 64 % 0 in
19:24 70.2 °F 57.7 °F 30.3 in South 5.8 mph 5.8 mph 65 % 0 in
19:29 70 °F 57.7 °F 30.3 in SW 4.6 mph 4.6 mph 65 % 0 in
19:34 69.6 °F 57.7 °F 30.3 in SW 4.6 mph 4.6 mph 66 % 0 in
19:39 69.4 °F 57.6 °F 30.3 in West 4.6 mph 4.6 mph 66 % 0 in
19:44 69.3 °F 57.7 °F 30.3 in SW 5.8 mph 5.8 mph 67 % 0 in
19:49 69.1 °F 57.7 °F 30.3 in SSW 6.9 mph 6.9 mph 67 % 0 in
19:54 68.9 °F 57.9 °F 30.3 in SW 3.5 mph 3.5 mph 68 % 0 in
19:59 68.7 °F 58.1 °F 30.3 in WSW 3.5 mph 3.5 mph 69 % 0 in
20:04 68.5 °F 57.9 °F 30.3 in WSW 3.5 mph 3.5 mph 69 % 0 in
20:09 68.4 °F 58.3 °F 30.3 in SW 3.5 mph 3.5 mph 70 % 0 in
20:14 68.2 °F 57.9 °F 30.3 in West 2.3 mph 2.3 mph 70 % 0 in
20:19 68.2 °F 57.9 °F 30.3 in SW 4.6 mph 4.6 mph 70 % 0 in
20:24 68 °F 58.3 °F 30.3 in SW 2.6 mph 2.6 mph 71 % 0 in
20:29 67.8 °F 58.5 °F 30.3 in SW 3.1 mph 3.1 mph 72 % 0 in
20:34 67.6 °F 58.6 °F 30.3 in SW 2.3 mph 2.3 mph 73 % 0 in
20:39 67.5 °F 58.5 °F 30.3 in WSW 2.3 mph 2.3 mph 73 % 0 in
20:44 67.3 °F 58.3 °F 30.3 in WSW 2.3 mph 2.3 mph 73 % 0 in
20:49 67.1 °F 58.5 °F 30.3 in SW 1.6 mph 1.6 mph 74 % 0 in
20:54 66.9 °F 58.5 °F 30.3 in WSW 1.2 mph   74 % 0 in
20:59 66.7 °F 58.6 °F 30.3 in Calm     75 % 0 in
21:04 66.7 °F 58.6 °F 30.3 in West 2.3 mph 2.3 mph 75 % 0 in
21:09 66.7 °F 58.6 °F 30.3 in West 2.3 mph   75 % 0 in
21:14 66.6 °F 58.5 °F 30.3 in Calm     75 % 0 in
21:19 66.6 °F 58.8 °F 30.3 in Calm     76 % 0 in
21:24 66.2 °F 58.5 °F 30.3 in Calm     76 % 0 in
21:29 66.2 °F 58.5 °F 30.3 in Calm     76 % 0 in
21:34 66.2 °F 58.8 °F 30.3 in Calm     77 % 0 in
21:35 66.2 °F 58.8 °F 30.3 in Calm     77 % 0 in
21:40 66 °F 59 °F 30.3 in Calm     78 % 0 in
21:45 65.8 °F 58.8 °F 30.3 in Calm     78 % 0 in
21:50 65.8 °F 58.8 °F 30.3 in Calm     78 % 0 in
21:55 65.8 °F 58.8 °F 30.3 in Calm     78 % 0 in
22:00 65.7 °F 59 °F 30.3 in Calm     79 % 0 in
22:05 65.5 °F 58.8 °F 30.3 in Calm     79 % 0 in
22:10 65.5 °F 58.8 °F 30.3 in Calm     79 % 0 in
22:15 65.5 °F 58.8 °F 30.3 in Calm     79 % 0 in
22:20 65.3 °F 58.6 °F 30.3 in Calm     79 % 0 in
22:25 65.3 °F 58.6 °F 30.3 in Calm     79 % 0 in
22:30 65.3 °F 58.6 °F 30.3 in Calm     79 % 0 in
22:35 65.1 °F 58.8 °F 30.3 in Calm     80 % 0 in
22:40 65.1 °F 58.5 °F 30.3 in Calm     79 % 0 in
22:45 64.9 °F 58.6 °F 30.3 in Calm     80 % 0 in
22:50 64.9 °F 58.6 °F 30.3 in Calm     80 % 0 in
22:55 64.9 °F 58.6 °F 30.3 in Calm     80 % 0 in
23:00 64.9 °F 58.6 °F 30.4 in Calm     80 % 0 in
23:05 65.1 °F 59.2 °F 30.4 in Calm     81 % 0 in
23:10 64.9 °F 59 °F 30.4 in Calm     81 % 0 in
23:15 64.9 °F 59 °F 30.3 in SSW 1.4 mph   81 % 0 in
23:20 64.9 °F 59 °F 30.3 in Calm     81 % 0 in
23:25 64.9 °F 59.4 °F 30.3 in Calm     82 % 0 in
23:30 64.8 °F 58.8 °F 30.3 in Calm     81 % 0 in
23:35 64.8 °F 58.8 °F 30.3 in Calm     81 % 0 in
23:40 64.6 °F 59 °F 30.3 in Calm     82 % 0 in
23:45 64.6 °F 59 °F 30.4 in Calm     82 % 0 in
23:50 64.6 °F 59 °F 30.4 in Calm     82 % 0 in
23:55 64.6 °F 59 °F 30.4 in Calm     82 % 0 in
Meteo Sesrovires
Elogis d' Weather Underground - 4 mb

Guio original per  Jim McMurry - jmcmurry@mwt.net Adaptat per a la plantilla per  Wim van der Kuil - Leuven-Template.eu

Trobareu la nostra informacio del temps tambe a:

Weather Underground

AWEKAS